Lloydminster Airport
CYLL : now visible

Airfield :











YOU CAN JOIN US ON...

 
LOGIN :

Register | Disclaimer

   EN    FR    IT 

 









Legend :    VFR   Marginal VFR   IFR   Intensive IFR   Very Intensive IFR
Visi :
Ceiling :
>= 8 km
>= 3000ft
5 to 8 km
1000 to 3000 ft
1500m to 5 km
500 to 1000 ft
800 to 1500m
200 to 500 ft
< 800m
< 200 ft
Symbols :   Thunderstorms  Fog  Heavy snow  Heavy precipitations  Wind > 20 kt






- Airport Elevation : 2193 ft
- IATA code : YLL


CYLL - Lloydminster

CURRENT METAR :
  • 250800Z AUTO 23009KT 9SM SCT100 BKN120 12/03 A2987 RMK ICG MISG SLP122 DENSITY ALT 2300FT

EXPIRED METARs :
  • 250700Z AUTO 22009KT 9SM CLR 10/03 A2987 RMK ICG MISG SLP125
  • 250600Z AUTO 24007KT 9SM CLR 11/03 A2987 RMK ICG MISG SLP125 DENSITY ALT 2200FT
  • 250500Z AUTO 24006KT 9SM CLR 11/04 A2988 RMK ICG MISG SLP129 DENSITY ALT 2300FT

TAF TAF CYLL
Valid from the 25 at 06:00 until the 25 at 18:00 UTC


250538Z 2506/2518 23005KT P6SM FEW100 FEW250
FM251000 23008KT P6SM BKN080
TEMPO 2510/2518 SCT080
BECMG 2516/2518 23012KT RMK FCST BASED ON AUTO OBS. NXT FCST BY 251200Z
CZEG FIR / North America



MET'MAP, your aeronautical weather chart ! - Copyright ORBIFLY December 2007 - Disclaimer

ORBIFLY MET'MAP TEAM :

Programming & Development : Alexandra Zaïnal
Concept & original design : Baudouin d'Aumeries
Assistance for programming : Marc-Olivier Méhu
Technical & hardware support : Manuel Goepfert

Contact : metmap@orbifly.com




SOURCES & CREDITS :

   NOAA       Earth
Advisory